Amity, Arkansas
Current Conditions -  °F | °C
As of 6:53 AM on Saturday 01 Nov 2014 (Local Time) from KMWT Reporting Station
Clear Clear  
Wind Chill: 29°   Ceiling: Unl
Heat Index: 29°   Visibility: 10mi
Dew Point: 26°   Wind: 0mph
Humidity: 89%   Direction: NA
Pressure: 30.41"   Gusts: NA
Location:  34.26°N, 93.46°W
Report Text: KMWT 011153Z AUTO 00000KT 10SM CLR M02/M03 A3041 RMK AO2 SLP307 T10171033 10011 21017 53011
Loading
Personal Weather Stations






























Interactive Weather Map
Tropical Storm Tracking
New forecast layout! Learn more

10-Day Weather Forecast

Advertisements
Track Severe Weather on mobile